sensor_id;sensor_type;location;lat;lon;timestamp;pressure;altitude;pressure_sealevel;temperature;humidity
62710;BME280;48770;51.624;5.886;2023-10-31T00:00:49;99438.00;;;20.17;51.26
62710;BME280;48770;51.624;5.886;2023-10-31T00:03:15;99440.78;;;20.17;51.13
62710;BME280;48770;51.624;5.886;2023-10-31T00:05:41;99449.09;;;20.17;50.99
62710;BME280;48770;51.624;5.886;2023-10-31T00:08:06;99464.16;;;20.16;51.31
62710;BME280;48770;51.624;5.886;2023-10-31T00:10:31;99466.16;;;20.16;51.11
62710;BME280;48770;51.624;5.886;2023-10-31T00:12:56;99473.66;;;20.15;51.26
62710;BME280;48770;51.624;5.886;2023-10-31T00:15:22;99482.00;;;20.15;51.07
62710;BME280;48770;51.624;5.886;2023-10-31T00:17:49;99497.84;;;20.15;51.21
62710;BME280;48770;51.624;5.886;2023-10-31T00:20:15;99505.38;;;20.14;51.08
62710;BME280;48770;51.624;5.886;2023-10-31T00:22:40;99493.47;;;20.14;51.08
62710;BME280;48770;51.624;5.886;2023-10-31T00:25:06;99502.59;;;20.14;51.14
62710;BME280;48770;51.624;5.886;2023-10-31T00:27:31;99505.38;;;20.14;51.34
62710;BME280;48770;51.624;5.886;2023-10-31T00:29:56;99510.13;;;20.14;50.87
62710;BME280;48770;51.624;5.886;2023-10-31T00:32:21;99509.34;;;20.13;50.93
62710;BME280;48770;51.624;5.886;2023-10-31T00:34:47;99508.94;;;20.15;51.04
62710;BME280;48770;51.624;5.886;2023-10-31T00:37:12;99525.19;;;20.13;51.11
62710;BME280;48770;51.624;5.886;2023-10-31T00:39:38;99518.44;;;20.14;50.86
62710;BME280;48770;51.624;5.886;2023-10-31T00:42:03;99530.72;;;20.13;51.25
62710;BME280;48770;51.624;5.886;2023-10-31T00:44:28;99545.78;;;20.12;51.09
62710;BME280;48770;51.624;5.886;2023-10-31T00:46:53;99544.19;;;20.11;50.74
62710;BME280;48770;51.624;5.886;2023-10-31T00:49:19;99543.00;;;20.12;51.15
62710;BME280;48770;51.624;5.886;2023-10-31T00:51:44;99542.59;;;20.10;51.00
62710;BME280;48770;51.624;5.886;2023-10-31T00:54:09;99544.19;;;20.11;51.01
62710;BME280;48770;51.624;5.886;2023-10-31T00:56:35;99549.75;;;20.11;50.90
62710;BME280;48770;51.624;5.886;2023-10-31T00:59:00;99548.13;;;20.10;51.03
62710;BME280;48770;51.624;5.886;2023-10-31T01:01:25;99552.09;;;20.09;50.68
62710;BME280;48770;51.624;5.886;2023-10-31T01:03:51;99551.72;;;20.10;50.87
62710;BME280;48770;51.624;5.886;2023-10-31T01:06:16;99550.13;;;20.09;51.13
62710;BME280;48770;51.624;5.886;2023-10-31T01:08:42;99554.88;;;20.09;50.58
62710;BME280;48770;51.624;5.886;2023-10-31T01:11:07;99554.88;;;20.09;50.84
62710;BME280;48770;51.624;5.886;2023-10-31T01:13:32;99567.16;;;20.08;51.00
62710;BME280;48770;51.624;5.886;2023-10-31T01:15:57;99567.94;;;20.08;50.94
62710;BME280;48770;51.624;5.886;2023-10-31T01:18:23;99567.16;;;20.08;51.14
62710;BME280;48770;51.624;5.886;2023-10-31T01:20:48;99563.56;;;20.07;50.76
62710;BME280;48770;51.624;5.886;2023-10-31T01:23:14;99575.47;;;20.08;50.77
62710;BME280;48770;51.624;5.886;2023-10-31T01:25:39;99578.25;;;20.08;50.68
62710;BME280;48770;51.624;5.886;2023-10-31T01:28:04;99582.19;;;20.07;50.91
62710;BME280;48770;51.624;5.886;2023-10-31T01:30:29;99581.41;;;20.06;50.88
62710;BME280;48770;51.624;5.886;2023-10-31T01:32:55;99584.19;;;20.06;50.78
62710;BME280;48770;51.624;5.886;2023-10-31T01:35:20;99583.38;;;20.06;50.86
62710;BME280;48770;51.624;5.886;2023-10-31T01:37:45;99590.53;;;20.07;50.79
62710;BME280;48770;51.624;5.886;2023-10-31T01:40:14;99591.25;;;20.03;50.64
62710;BME280;48770;51.624;5.886;2023-10-31T01:42:39;99587.75;;;20.07;50.88
62710;BME280;48770;51.624;5.886;2023-10-31T01:45:05;99595.66;;;20.05;50.63
62710;BME280;48770;51.624;5.886;2023-10-31T01:47:31;99594.47;;;20.06;50.80
62710;BME280;48770;51.624;5.886;2023-10-31T01:49:57;99605.94;;;20.04;50.76
62710;BME280;48770;51.624;5.886;2023-10-31T01:52:23;99602.00;;;20.05;50.77
62710;BME280;48770;51.624;5.886;2023-10-31T01:54:49;99617.06;;;20.04;50.84
62710;BME280;48770;51.624;5.886;2023-10-31T01:57:14;99610.69;;;20.03;50.78
62710;BME280;48770;51.624;5.886;2023-10-31T01:59:41;99617.84;;;20.05;50.58
62710;BME280;48770;51.624;5.886;2023-10-31T02:02:06;99615.44;;;20.03;50.71
62710;BME280;48770;51.624;5.886;2023-10-31T02:04:33;99614.28;;;20.04;50.72
62710;BME280;48770;51.624;5.886;2023-10-31T02:06:58;99606.31;;;20.02;50.74
62710;BME280;48770;51.624;5.886;2023-10-31T02:09:23;99607.09;;;20.03;50.66
62710;BME280;48770;51.624;5.886;2023-10-31T02:11:51;99605.50;;;20.02;50.62
62710;BME280;48770;51.624;5.886;2023-10-31T02:14:18;99603.53;;;20.02;50.63
62710;BME280;48770;51.624;5.886;2023-10-31T02:16:43;99597.97;;;20.02;50.59
62710;BME280;48770;51.624;5.886;2023-10-31T02:19:10;99600.75;;;20.02;50.96
62710;BME280;48770;51.624;5.886;2023-10-31T02:21:39;99600.34;;;20.00;50.63
62710;BME280;48770;51.624;5.886;2023-10-31T02:24:04;99605.50;;;20.02;50.61
62710;BME280;48770;51.624;5.886;2023-10-31T02:26:31;99607.47;;;20.01;50.87
62710;BME280;48770;51.624;5.886;2023-10-31T02:28:56;99608.28;;;20.02;50.64
62710;BME280;48770;51.624;5.886;2023-10-31T02:31:22;99596.38;;;20.01;50.66
62710;BME280;48770;51.624;5.886;2023-10-31T02:33:47;99597.56;;;20.00;50.96
62710;BME280;48770;51.624;5.886;2023-10-31T02:36:12;99593.97;;;20.00;50.66
62710;BME280;48770;51.624;5.886;2023-10-31T02:38:39;99592.00;;;20.00;50.48
62710;BME280;48770;51.624;5.886;2023-10-31T02:41:04;99596.38;;;20.01;50.52
62710;BME280;48770;51.624;5.886;2023-10-31T02:43:29;99600.34;;;20.00;50.96
62710;BME280;48770;51.624;5.886;2023-10-31T02:45:55;99611.44;;;20.00;50.80
62710;BME280;48770;51.624;5.886;2023-10-31T02:48:20;99601.50;;;19.99;50.66
62710;BME280;48770;51.624;5.886;2023-10-31T02:50:45;99607.84;;;20.00;50.53
62710;BME280;48770;51.624;5.886;2023-10-31T02:53:11;99614.22;;;20.00;50.38
62710;BME280;48770;51.624;5.886;2023-10-31T02:55:36;99611.44;;;20.00;50.66
62710;BME280;48770;51.624;5.886;2023-10-31T02:58:02;99605.88;;;20.00;50.42
62710;BME280;48770;51.624;5.886;2023-10-31T03:00:27;99618.16;;;19.99;50.60
62710;BME280;48770;51.624;5.886;2023-10-31T03:02:52;99607.44;;;19.98;50.91
62710;BME280;48770;51.624;5.886;2023-10-31T03:05:18;99612.19;;;19.97;50.90
62710;BME280;48770;51.624;5.886;2023-10-31T03:07:43;99611.81;;;19.99;50.60
62710;BME280;48770;51.624;5.886;2023-10-31T03:10:10;99611.00;;;19.98;50.50
62710;BME280;48770;51.624;5.886;2023-10-31T03:12:35;99615.75;;;19.98;50.58
62710;BME280;48770;51.624;5.886;2023-10-31T03:15:02;99615.75;;;19.98;50.67
62710;BME280;48770;51.624;5.886;2023-10-31T03:17:29;99619.34;;;19.98;50.76
62710;BME280;48770;51.624;5.886;2023-10-31T03:19:54;99617.34;;;19.99;50.86
62710;BME280;48770;51.624;5.886;2023-10-31T03:22:19;99613.38;;;19.96;50.70
62710;BME280;48770;51.624;5.886;2023-10-31T03:24:45;99623.28;;;19.97;50.84
62710;BME280;48770;51.624;5.886;2023-10-31T03:27:11;99623.28;;;19.97;50.98
62710;BME280;48770;51.624;5.886;2023-10-31T03:29:36;99630.00;;;19.96;50.68
62710;BME280;48770;51.624;5.886;2023-10-31T03:32:01;99630.00;;;19.96;50.82
62710;BME280;48770;51.624;5.886;2023-10-31T03:34:26;99636.34;;;19.97;50.81
62710;BME280;48770;51.624;5.886;2023-10-31T03:36:52;99635.13;;;19.94;50.98
62710;BME280;48770;51.624;5.886;2023-10-31T03:39:17;99641.09;;;19.96;50.79
62710;BME280;48770;51.624;5.886;2023-10-31T03:41:43;99646.66;;;19.96;50.76
62710;BME280;48770;51.624;5.886;2023-10-31T03:44:09;99639.50;;;19.95;50.59
62710;BME280;48770;51.624;5.886;2023-10-31T03:46:34;99656.94;;;19.96;50.70
62710;BME280;48770;51.624;5.886;2023-10-31T03:48:59;99655.34;;;19.95;50.56
62710;BME280;48770;51.624;5.886;2023-10-31T03:51:24;99660.09;;;19.94;50.47
62710;BME280;48770;51.624;5.886;2023-10-31T03:53:50;99668.44;;;19.94;50.69
62710;BME280;48770;51.624;5.886;2023-10-31T03:56:15;99669.22;;;19.95;50.75
62710;BME280;48770;51.624;5.886;2023-10-31T03:58:42;99670.41;;;19.94;50.90
62710;BME280;48770;51.624;5.886;2023-10-31T04:01:08;99669.22;;;19.95;50.56
62710;BME280;48770;51.624;5.886;2023-10-31T04:03:33;99676.75;;;19.94;50.58
62710;BME280;48770;51.624;5.886;2023-10-31T04:05:58;99675.94;;;19.94;50.50
62710;BME280;48770;51.624;5.886;2023-10-31T04:08:24;99677.94;;;19.93;50.86
62710;BME280;48770;51.624;5.886;2023-10-31T04:10:49;99681.06;;;19.92;50.55
62710;BME280;48770;51.624;5.886;2023-10-31T04:13:14;99684.66;;;19.92;50.50
62710;BME280;48770;51.624;5.886;2023-10-31T04:15:39;99679.91;;;19.93;50.63
62710;BME280;48770;51.624;5.886;2023-10-31T04:18:05;99692.19;;;19.92;50.54
62710;BME280;48770;51.624;5.886;2023-10-31T04:20:30;99696.53;;;19.93;50.85
62710;BME280;48770;51.624;5.886;2023-10-31T04:22:55;99698.53;;;19.92;50.77
62710;BME280;48770;51.624;5.886;2023-10-31T04:25:21;99698.53;;;19.92;50.59
62710;BME280;48770;51.624;5.886;2023-10-31T04:27:46;99704.88;;;19.93;50.58
62710;BME280;48770;51.624;5.886;2023-10-31T04:30:11;99704.06;;;19.92;50.67
62710;BME280;48770;51.624;5.886;2023-10-31T04:32:37;99708.81;;;19.92;50.68
62710;BME280;48770;51.624;5.886;2023-10-31T04:35:02;99713.56;;;19.91;50.74
62710;BME280;48770;51.624;5.886;2023-10-31T04:37:27;99717.13;;;19.92;50.78
62710;BME280;48770;51.624;5.886;2023-10-31T04:39:53;99717.94;;;19.92;50.86
62710;BME280;48770;51.624;5.886;2023-10-31T04:42:18;99719.91;;;19.92;50.75
62710;BME280;48770;51.624;5.886;2023-10-31T04:44:45;99723.50;;;19.92;50.69
62710;BME280;48770;51.624;5.886;2023-10-31T04:47:10;99719.91;;;19.92;50.54
62710;BME280;48770;51.624;5.886;2023-10-31T04:49:36;99722.69;;;19.92;50.79
62710;BME280;48770;51.624;5.886;2023-10-31T04:52:01;99726.63;;;19.91;50.56
62710;BME280;48770;51.624;5.886;2023-10-31T04:54:26;99734.97;;;19.91;50.54
62710;BME280;48770;51.624;5.886;2023-10-31T04:56:52;99731.38;;;19.90;50.60
62710;BME280;48770;51.624;5.886;2023-10-31T04:59:17;99734.97;;;19.91;50.88
62710;BME280;48770;51.624;5.886;2023-10-31T05:01:48;99737.69;;;19.87;50.51
62710;BME280;48770;51.624;5.886;2023-10-31T05:04:14;99738.09;;;19.89;50.60
62710;BME280;48770;51.624;5.886;2023-10-31T05:06:39;99745.25;;;19.90;50.81
62710;BME280;48770;51.624;5.886;2023-10-31T05:09:05;99750.81;;;19.90;50.67
62710;BME280;48770;51.624;5.886;2023-10-31T05:11:30;99761.09;;;19.90;50.48
62710;BME280;48770;51.624;5.886;2023-10-31T05:13:55;99750.38;;;19.88;50.51
62710;BME280;48770;51.624;5.886;2023-10-31T05:16:20;99755.94;;;19.88;50.76
62710;BME280;48770;51.624;5.886;2023-10-31T05:18:46;99756.72;;;19.89;50.61
62710;BME280;48770;51.624;5.886;2023-10-31T05:21:11;99765.06;;;19.89;50.74
62710;BME280;48770;51.624;5.886;2023-10-31T05:23:36;99754.31;;;19.87;50.89
62710;BME280;48770;51.624;5.886;2023-10-31T05:26:05;99758.28;;;19.86;50.51
62710;BME280;48770;51.624;5.886;2023-10-31T05:28:30;99764.25;;;19.88;50.44
62710;BME280;48770;51.624;5.886;2023-10-31T05:30:55;99760.69;;;19.88;50.79
62710;BME280;48770;51.624;5.886;2023-10-31T05:33:21;99768.19;;;19.87;50.58
62710;BME280;48770;51.624;5.886;2023-10-31T05:35:46;99769.00;;;19.88;50.67
62710;BME280;48770;51.624;5.886;2023-10-31T05:38:11;99776.53;;;19.87;50.63
62710;BME280;48770;51.624;5.886;2023-10-31T05:40:36;99778.50;;;19.87;50.82
62710;BME280;48770;51.624;5.886;2023-10-31T05:43:02;99782.06;;;19.87;50.68
62710;BME280;48770;51.624;5.886;2023-10-31T05:45:28;99793.16;;;19.87;50.61
62710;BME280;48770;51.624;5.886;2023-10-31T05:47:53;99787.63;;;19.87;50.41
62710;BME280;48770;51.624;5.886;2023-10-31T05:50:18;99782.06;;;19.87;50.70
62710;BME280;48770;51.624;5.886;2023-10-31T05:52:44;99786.00;;;19.86;50.21
62710;BME280;48770;51.624;5.886;2023-10-31T05:55:09;99794.34;;;19.86;50.62
62710;BME280;48770;51.624;5.886;2023-10-31T05:57:34;99794.34;;;19.86;50.76
62710;BME280;48770;51.624;5.886;2023-10-31T06:00:00;99804.25;;;19.87;50.45
62710;BME280;48770;51.624;5.886;2023-10-31T06:02:25;99805.44;;;19.86;50.51
62710;BME280;48770;51.624;5.886;2023-10-31T06:04:50;99811.78;;;19.87;50.63
62710;BME280;48770;51.624;5.886;2023-10-31T06:07:16;99820.47;;;19.85;50.64
62710;BME280;48770;51.624;5.886;2023-10-31T06:09:41;99818.50;;;19.86;50.50
62710;BME280;48770;51.624;5.886;2023-10-31T06:12:06;99820.47;;;19.85;50.76
62710;BME280;48770;51.624;5.886;2023-10-31T06:14:32;99828.81;;;19.85;50.67
62710;BME280;48770;51.624;5.886;2023-10-31T06:16:57;99834.34;;;19.85;50.50
62710;BME280;48770;51.624;5.886;2023-10-31T06:19:24;99839.53;;;19.87;50.31
62710;BME280;48770;51.624;5.886;2023-10-31T06:21:49;99845.44;;;19.85;50.50
62710;BME280;48770;51.624;5.886;2023-10-31T06:24:15;99842.66;;;19.85;50.49
62710;BME280;48770;51.624;5.886;2023-10-31T06:26:40;99843.84;;;19.84;50.77
62710;BME280;48770;51.624;5.886;2023-10-31T06:29:05;99843.84;;;19.84;50.57
62710;BME280;48770;51.624;5.886;2023-10-31T06:31:31;99852.16;;;19.84;50.76
62710;BME280;48770;51.624;5.886;2023-10-31T06:33:56;99858.50;;;19.85;50.65
62710;BME280;48770;51.624;5.886;2023-10-31T06:36:22;99856.09;;;19.83;50.72
62710;BME280;48770;51.624;5.886;2023-10-31T06:38:47;99849.75;;;19.83;50.68
62710;BME280;48770;51.624;5.886;2023-10-31T06:41:12;99855.31;;;19.83;50.80
62710;BME280;48770;51.624;5.886;2023-10-31T06:43:38;99857.72;;;19.84;50.53
62710;BME280;48770;51.624;5.886;2023-10-31T06:46:04;99864.44;;;19.83;50.63
62710;BME280;48770;51.624;5.886;2023-10-31T06:48:30;99865.59;;;19.82;50.47
62710;BME280;48770;51.624;5.886;2023-10-31T06:50:55;99858.09;;;19.83;50.61
62710;BME280;48770;51.624;5.886;2023-10-31T06:53:21;99873.56;;;19.84;50.42
62710;BME280;48770;51.624;5.886;2023-10-31T06:55:46;99870.34;;;19.82;50.52
62710;BME280;48770;51.624;5.886;2023-10-31T06:58:11;99873.13;;;19.82;50.47
62710;BME280;48770;51.624;5.886;2023-10-31T07:00:36;99877.06;;;19.81;50.63
62710;BME280;48770;51.624;5.886;2023-10-31T07:03:03;99883.84;;;19.83;50.73
62710;BME280;48770;51.624;5.886;2023-10-31T07:05:31;99892.97;;;19.84;50.71
62710;BME280;48770;51.624;5.886;2023-10-31T07:07:57;99896.91;;;19.83;50.45
62710;BME280;48770;51.624;5.886;2023-10-31T07:10:22;99900.06;;;19.81;50.66
62710;BME280;48770;51.624;5.886;2023-10-31T07:12:47;99912.75;;;19.82;50.82
62710;BME280;48770;51.624;5.886;2023-10-31T07:15:13;99911.97;;;19.82;50.40
62710;BME280;48770;51.624;5.886;2023-10-31T07:17:38;99901.22;;;19.80;50.37
62710;BME280;48770;51.624;5.886;2023-10-31T07:20:04;99902.84;;;19.81;50.48
62710;BME280;48770;51.624;5.886;2023-10-31T07:22:30;99896.13;;;19.82;50.60
62710;BME280;48770;51.624;5.886;2023-10-31T07:24:57;99895.31;;;19.82;50.38
62710;BME280;48770;51.624;5.886;2023-10-31T07:27:24;99891.38;;;19.83;50.59
62710;BME280;48770;51.624;5.886;2023-10-31T07:29:49;99893.72;;;19.81;50.58
62710;BME280;48770;51.624;5.886;2023-10-31T07:32:14;99895.69;;;19.80;50.60
62710;BME280;48770;51.624;5.886;2023-10-31T07:34:41;99895.31;;;19.82;50.71
62710;BME280;48770;51.624;5.886;2023-10-31T07:37:07;99893.34;;;19.82;50.38
62710;BME280;48770;51.624;5.886;2023-10-31T07:39:32;99892.53;;;19.82;50.69
62710;BME280;48770;51.624;5.886;2023-10-31T07:41:57;99891.75;;;19.81;50.52
62710;BME280;48770;51.624;5.886;2023-10-31T07:44:23;99896.13;;;19.82;50.74
62710;BME280;48770;51.624;5.886;2023-10-31T07:46:48;99899.25;;;19.81;50.37
62710;BME280;48770;51.624;5.886;2023-10-31T07:49:13;99899.25;;;19.81;50.41
62710;BME280;48770;51.624;5.886;2023-10-31T07:51:39;99900.44;;;19.80;50.60
62710;BME280;48770;51.624;5.886;2023-10-31T07:54:05;99907.59;;;19.81;50.47
62710;BME280;48770;51.624;5.886;2023-10-31T07:56:30;99908.38;;;19.81;50.48
62710;BME280;48770;51.624;5.886;2023-10-31T07:58:58;99910.00;;;19.82;50.51
62710;BME280;48770;51.624;5.886;2023-10-31T08:01:23;99910.00;;;19.82;50.45
62710;BME280;48770;51.624;5.886;2023-10-31T08:03:48;99916.72;;;19.81;50.35
62710;BME280;48770;51.624;5.886;2023-10-31T08:06:14;99919.47;;;19.81;50.54
62710;BME280;48770;51.624;5.886;2023-10-31T08:08:39;99919.09;;;19.83;50.33
62710;BME280;48770;51.624;5.886;2023-10-31T08:11:08;99920.28;;;19.82;50.27
62710;BME280;48770;51.624;5.886;2023-10-31T08:13:33;99925.81;;;19.82;50.52
62710;BME280;48770;51.624;5.886;2023-10-31T08:15:58;99929.78;;;19.81;50.28
62710;BME280;48770;51.624;5.886;2023-10-31T08:18:24;99934.94;;;19.82;50.44
62710;BME280;48770;51.624;5.886;2023-10-31T08:20:49;99934.16;;;19.82;50.46
62710;BME280;48770;51.624;5.886;2023-10-31T08:23:16;99932.19;;;19.82;50.71
62710;BME280;48770;51.624;5.886;2023-10-31T08:25:42;99939.31;;;19.83;50.31
62710;BME280;48770;51.624;5.886;2023-10-31T08:28:07;99940.50;;;19.82;50.36
62710;BME280;48770;51.624;5.886;2023-10-31T08:30:33;99944.88;;;19.83;50.23
62710;BME280;48770;51.624;5.886;2023-10-31T08:32:59;99944.88;;;19.83;50.50
62710;BME280;48770;51.624;5.886;2023-10-31T08:35:24;99945.25;;;19.82;50.48
62710;BME280;48770;51.624;5.886;2023-10-31T08:37:49;99940.50;;;19.82;50.30
62710;BME280;48770;51.624;5.886;2023-10-31T08:40:15;99943.28;;;19.82;50.63
62710;BME280;48770;51.624;5.886;2023-10-31T08:42:40;99948.03;;;19.82;50.42
62710;BME280;48770;51.624;5.886;2023-10-31T08:45:07;99955.97;;;19.83;50.19
62710;BME280;48770;51.624;5.886;2023-10-31T08:47:32;99954.38;;;19.82;50.65
62710;BME280;48770;51.624;5.886;2023-10-31T08:49:58;99957.16;;;19.82;50.28
62710;BME280;48770;51.624;5.886;2023-10-31T08:52:23;99967.06;;;19.83;50.45
62710;BME280;48770;51.624;5.886;2023-10-31T08:54:48;99975.38;;;19.83;50.46
62710;BME280;48770;51.624;5.886;2023-10-31T08:57:14;99965.47;;;19.82;50.08
62710;BME280;48770;51.624;5.886;2023-10-31T08:59:39;99965.47;;;19.82;50.46
62710;BME280;48770;51.624;5.886;2023-10-31T09:02:04;99972.63;;;19.83;50.44
62710;BME280;48770;51.624;5.886;2023-10-31T09:04:30;99986.84;;;19.82;50.45
62710;BME280;48770;51.624;5.886;2023-10-31T09:06:55;99989.25;;;19.83;50.33
62710;BME280;48770;51.624;5.886;2023-10-31T09:09:20;99991.59;;;19.81;50.20
62710;BME280;48770;51.624;5.886;2023-10-31T09:11:45;99985.69;;;19.83;50.40
62710;BME280;48770;51.624;5.886;2023-10-31T09:14:11;99996.78;;;19.83;50.47
62710;BME280;48770;51.624;5.886;2023-10-31T09:16:36;100000.34;;;19.83;50.37
62710;BME280;48770;51.624;5.886;2023-10-31T09:19:01;100000.34;;;19.83;50.46
62710;BME280;48770;51.624;5.886;2023-10-31T09:21:27;99997.59;;;19.83;50.58
62710;BME280;48770;51.624;5.886;2023-10-31T09:23:52;100005.09;;;19.83;50.40
62710;BME280;48770;51.624;5.886;2023-10-31T09:26:17;100011.44;;;19.83;50.53
62710;BME280;48770;51.624;5.886;2023-10-31T09:28:43;100009.84;;;19.82;50.33
62710;BME280;48770;51.624;5.886;2023-10-31T09:31:17;100019.78;;;19.83;50.37
62710;BME280;48770;51.624;5.886;2023-10-31T09:33:43;100021.38;;;19.84;50.40
62710;BME280;48770;51.624;5.886;2023-10-31T09:36:09;100025.75;;;19.85;50.42
62710;BME280;48770;51.624;5.886;2023-10-31T09:38:35;100036.50;;;19.87;50.55
62710;BME280;48770;51.624;5.886;2023-10-31T09:41:00;100038.47;;;19.86;50.90
62710;BME280;48770;51.624;5.886;2023-10-31T09:43:25;100044.81;;;19.87;50.98
62710;BME280;48770;51.624;5.886;2023-10-31T09:45:52;100049.56;;;19.86;50.71
62710;BME280;48770;51.624;5.886;2023-10-31T09:48:18;100044.81;;;19.87;50.64
62710;BME280;48770;51.624;5.886;2023-10-31T09:50:45;100058.69;;;19.87;50.81
62710;BME280;48770;51.624;5.886;2023-10-31T09:53:11;100063.06;;;19.88;50.79
62710;BME280;48770;51.624;5.886;2023-10-31T09:55:38;100065.03;;;19.87;50.85
62710;BME280;48770;51.624;5.886;2023-10-31T09:58:04;100066.22;;;19.86;50.91
62710;BME280;48770;51.624;5.886;2023-10-31T10:00:29;100057.88;;;19.86;51.05
62710;BME280;48770;51.624;5.886;2023-10-31T10:02:54;100060.66;;;19.86;51.11
62710;BME280;48770;51.624;5.886;2023-10-31T10:05:20;100069.41;;;19.88;51.13
62710;BME280;48770;51.624;5.886;2023-10-31T10:07:48;100069.41;;;19.88;50.83
62710;BME280;48770;51.624;5.886;2023-10-31T10:10:13;100075.78;;;19.89;51.01
62710;BME280;48770;51.624;5.886;2023-10-31T10:12:42;100080.50;;;19.88;50.76
62710;BME280;48770;51.624;5.886;2023-10-31T10:15:07;100078.53;;;19.89;50.93
62710;BME280;48770;51.624;5.886;2023-10-31T10:17:33;100093.22;;;19.89;50.88
62710;BME280;48770;51.624;5.886;2023-10-31T10:20:09;100101.84;;;19.84;50.83
62710;BME280;48770;51.624;5.886;2023-10-31T10:22:42;100103.44;;;19.85;51.00
62710;BME280;48770;51.624;5.886;2023-10-31T10:25:12;100098.69;;;19.86;51.05
62710;BME280;48770;51.624;5.886;2023-10-31T10:27:39;100105.47;;;19.88;50.75
62710;BME280;48770;51.624;5.886;2023-10-31T10:30:06;100104.31;;;19.89;51.00
62710;BME280;48770;51.624;5.886;2023-10-31T10:32:33;100103.50;;;19.89;50.80
62710;BME280;48770;51.624;5.886;2023-10-31T10:34:58;100109.06;;;19.89;50.88
62710;BME280;48770;51.624;5.886;2023-10-31T10:37:25;100104.31;;;19.89;51.47
62710;BME280;48770;51.624;5.886;2023-10-31T10:39:52;100113.44;;;19.90;50.92
62710;BME280;48770;51.624;5.886;2023-10-31T10:42:30;100119.72;;;19.87;50.68
62710;BME280;48770;51.624;5.886;2023-10-31T10:44:58;100132.88;;;19.90;50.71
62710;BME280;48770;51.624;5.886;2023-10-31T10:47:27;100130.09;;;19.90;50.82
62710;BME280;48770;51.624;5.886;2023-10-31T10:49:54;100134.47;;;19.91;50.88
62710;BME280;48770;51.624;5.886;2023-10-31T10:52:28;100134.03;;;19.89;50.68
62710;BME280;48770;51.624;5.886;2023-10-31T10:55:00;100140.75;;;19.88;50.77
62710;BME280;48770;51.624;5.886;2023-10-31T10:57:47;100145.78;;;19.82;50.93
62710;BME280;48770;51.624;5.886;2023-10-31T11:00:14;100144.31;;;19.88;50.74
62710;BME280;48770;51.624;5.886;2023-10-31T11:02:40;100141.19;;;19.90;50.97
62710;BME280;48770;51.624;5.886;2023-10-31T11:05:09;100132.88;;;19.90;50.50
62710;BME280;48770;51.624;5.886;2023-10-31T11:07:37;100135.63;;;19.90;50.97
62710;BME280;48770;51.624;5.886;2023-10-31T11:10:02;100142.44;;;19.92;51.15
62710;BME280;48770;51.624;5.886;2023-10-31T11:12:30;100142.06;;;19.94;51.11
62710;BME280;48770;51.624;5.886;2023-10-31T11:14:57;100138.47;;;19.93;51.31
62710;BME280;48770;51.624;5.886;2023-10-31T11:17:37;100150.81;;;19.96;51.47
62710;BME280;48770;51.624;5.886;2023-10-31T11:20:04;100138.91;;;19.95;51.59
62710;BME280;48770;51.624;5.886;2023-10-31T11:25:07;100149.72;;;20.00;51.67
62710;BME280;48770;51.624;5.886;2023-10-31T11:27:36;100154.91;;;20.02;51.67
62710;BME280;48770;51.624;5.886;2023-10-31T11:30:05;100151.78;;;20.03;51.55
62710;BME280;48770;51.624;5.886;2023-10-31T11:32:32;100154.66;;;20.07;52.13
62710;BME280;48770;51.624;5.886;2023-10-31T11:34:57;100155.91;;;20.10;51.71
62710;BME280;48770;51.624;5.886;2023-10-31T11:37:31;100164.22;;;20.10;51.84
62710;BME280;48770;51.624;5.886;2023-10-31T11:40:15;100166.06;;;19.86;52.30
62710;BME280;48770;51.624;5.886;2023-10-31T11:42:41;100165.44;;;19.77;52.40
62710;BME280;48770;51.624;5.886;2023-10-31T11:45:09;100159.66;;;20.01;52.28
62710;BME280;48770;51.624;5.886;2023-10-31T11:47:48;100159.28;;;20.03;52.00
62710;BME280;48770;51.624;5.886;2023-10-31T11:50:14;100163.50;;;20.13;51.95
62710;BME280;48770;51.624;5.886;2023-10-31T11:52:40;100166.69;;;20.15;51.84
62710;BME280;48770;51.624;5.886;2023-10-31T11:55:14;100168.69;;;20.14;51.87
62710;BME280;48770;51.624;5.886;2023-10-31T11:57:40;100163.63;;;20.20;51.90
62710;BME280;48770;51.624;5.886;2023-10-31T12:00:06;100179.56;;;20.23;51.85
62710;BME280;48770;51.624;5.886;2023-10-31T12:02:32;100174.00;;;20.23;51.75
62710;BME280;48770;51.624;5.886;2023-10-31T12:05:12;100177.81;;;20.15;52.06
62710;BME280;48770;51.624;5.886;2023-10-31T12:07:45;100177.06;;;20.18;51.86
62710;BME280;48770;51.624;5.886;2023-10-31T12:10:11;100170.78;;;20.21;51.75
62710;BME280;48770;51.624;5.886;2023-10-31T12:12:37;100182.69;;;20.21;51.56
62710;BME280;48770;51.624;5.886;2023-10-31T12:15:09;100185.03;;;20.19;51.34
62710;BME280;48770;51.624;5.886;2023-10-31T12:17:35;100182.34;;;20.23;51.32
62710;BME280;48770;51.624;5.886;2023-10-31T12:20:04;100183.50;;;20.22;51.52
62710;BME280;48770;51.624;5.886;2023-10-31T12:22:30;100189.84;;;20.22;51.41
62710;BME280;48770;51.624;5.886;2023-10-31T12:25:03;100192.19;;;20.20;51.24
62710;BME280;48770;51.624;5.886;2023-10-31T12:28:04;100194.38;;;20.11;51.77
62710;BME280;48770;51.624;5.886;2023-10-31T12:30:29;100196.56;;;20.21;51.29
62710;BME280;48770;51.624;5.886;2023-10-31T12:32:55;100196.22;;;20.23;51.33
62710;BME280;48770;51.624;5.886;2023-10-31T12:35:23;100199.44;;;20.25;51.19
62710;BME280;48770;51.624;5.886;2023-10-31T12:37:50;100197.00;;;20.23;51.27
62710;BME280;48770;51.624;5.886;2023-10-31T12:40:17;100198.63;;;20.24;51.39
62710;BME280;48770;51.624;5.886;2023-10-31T12:42:44;100192.28;;;20.24;51.33
62710;BME280;48770;51.624;5.886;2023-10-31T12:45:14;100193.44;;;20.23;51.12
62710;BME280;48770;51.624;5.886;2023-10-31T12:47:40;100186.72;;;20.24;51.08
62710;BME280;48770;51.624;5.886;2023-10-31T12:50:11;100194.59;;;20.22;51.26
62710;BME280;48770;51.624;5.886;2023-10-31T12:52:48;100188.19;;;20.18;51.45
62710;BME280;48770;51.624;5.886;2023-10-31T12:55:15;100190.66;;;20.23;51.05